Time;durP1;ratioP1;P1;durP2;ratioP2;P2;SDS_P1;SDS_P2;PMS_P1;PMS_P2;Temp;Humidity;BMP_temperature;BMP_pressure;BME280_temperature;BME280_humidity;BME280_pressure;Samples;Min_cycle;Max_cycle;Signal;HPM_P1;HPM_P2
2022/11/13 00:00:45;;;;;;;;;;;;;;;12.61;73.05;102998.25;5063689;28;19924;-57
2022/11/13 00:03:10;;;;;;;;;;;;;;;12.61;72.91;103000.06;5064543;28;19924;-58
2022/11/13 00:05:36;;;;;;;;;;;;;;;12.60;72.85;103001.81;5069692;28;19916;-58
2022/11/13 00:08:01;;;;;;;;;;;;;;;12.62;72.85;102988.56;5061495;28;19928;-61
2022/11/13 00:10:26;;;;;;;;;;;;;;;12.62;72.98;102999.13;5063792;28;19917;-57
2022/11/13 00:12:53;;;;;;;;;;;;;;;12.61;72.94;102998.25;5064387;28;20154;-57
2022/11/13 00:15:18;;;;;;;;;;;;;;;12.60;72.91;102996.53;5047071;28;20014;-59
2022/11/13 00:17:44;;;;;;;;;;;;;;;12.60;72.83;102995.69;5042077;28;20010;-57
2022/11/13 00:20:09;;;;;;;;;;;;;;;12.61;72.94;102997.41;5066855;28;19971;-61
2022/11/13 00:22:34;;;;;;;;;;;;;;;12.59;72.96;102988.66;5061955;28;19935;-61
2022/11/13 00:24:59;;;;;;;;;;;;;;;12.58;72.97;102985.13;5060827;28;19940;-59
2022/11/13 00:27:25;;;;;;;;;;;;;;;12.57;72.87;102979.91;5064303;28;20361;-59
2022/11/13 00:29:50;;;;;;;;;;;;;;;12.56;72.96;102986.97;5065476;28;19936;-57
2022/11/13 00:32:16;;;;;;;;;;;;;;;12.57;72.96;102974.63;5060054;28;19936;-58
2022/11/13 00:34:41;;;;;;;;;;;;;;;12.56;72.92;102971.13;5067014;28;19920;-58
2022/11/13 00:37:06;;;;;;;;;;;;;;;12.57;72.73;102964.06;5058848;28;19916;-60
2022/11/13 00:39:32;;;;;;;;;;;;;;;12.58;72.85;102968.44;5063548;28;20406;-58
2022/11/13 00:41:57;;;;;;;;;;;;;;;12.57;72.85;102966.72;5064208;28;19920;-60
2022/11/13 00:44:22;;;;;;;;;;;;;;;12.56;72.75;102968.47;5063854;28;20432;-58
2022/11/13 00:46:48;;;;;;;;;;;;;;;12.56;72.63;102968.47;5064711;28;19916;-58
2022/11/13 00:49:13;;;;;;;;;;;;;;;12.59;72.73;102967.53;5067194;28;19924;-59
2022/11/13 00:51:38;;;;;;;;;;;;;;;12.58;72.60;102958.72;5062019;28;19948;-59
2022/11/13 00:54:04;;;;;;;;;;;;;;;12.59;72.66;102964.91;5049427;28;19969;-59
2022/11/13 00:56:29;;;;;;;;;;;;;;;12.58;72.72;102964.00;5065382;28;20003;-58
2022/11/13 00:58:54;;;;;;;;;;;;;;;12.57;72.79;102958.78;5066239;28;20562;-58
2022/11/13 01:01:20;;;;;;;;;;;;;;;12.58;72.44;102964.00;5060113;28;19950;-60
2022/11/13 01:03:45;;;;;;;;;;;;;;;12.60;72.70;102962.19;5064014;28;21250;-58
2022/11/13 01:06:11;;;;;;;;;;;;;;;12.61;72.42;102961.28;5063196;28;19927;-58
2022/11/13 01:08:36;;;;;;;;;;;;;;;12.61;72.38;102963.94;5064810;28;20027;-58
2022/11/13 01:11:07;;;;;;;;;;;;;;;12.59;72.55;102957.81;5070709;28;20015;-57
2022/11/13 01:13:33;;;;;;;;;;;;;;;12.62;72.53;102954.25;5068020;28;19916;-60
2022/11/13 01:15:58;;;;;;;;;;;;;;;12.62;72.48;102949.81;5068166;28;20272;-59
2022/11/13 01:18:23;;;;;;;;;;;;;;;12.61;72.23;102949.88;5067939;28;19913;-58
2022/11/13 01:20:49;;;;;;;;;;;;;;;12.61;72.38;102955.16;5072845;28;19927;-61
2022/11/13 01:23:14;;;;;;;;;;;;;;;12.61;72.24;102957.78;5066309;28;19921;-58
2022/11/13 01:25:39;;;;;;;;;;;;;;;12.60;72.38;102953.41;5068686;28;19921;-58
2022/11/13 01:28:05;;;;;;;;;;;;;;;12.60;72.38;102948.13;5066344;28;19928;-60
2022/11/13 01:30:30;;;;;;;;;;;;;;;12.60;72.40;102948.13;5063391;28;19921;-59
2022/11/13 01:32:55;;;;;;;;;;;;;;;12.59;72.02;102949.06;5060096;28;21199;-58
2022/11/13 01:35:21;;;;;;;;;;;;;;;12.60;72.31;102945.50;5067395;28;19973;-57
2022/11/13 01:37:46;;;;;;;;;;;;;;;12.59;72.15;102947.25;5068440;28;20410;-60
2022/11/13 01:40:12;;;;;;;;;;;;;;;12.59;72.37;102943.75;5055343;28;19942;-60
2022/11/13 01:42:37;;;;;;;;;;;;;;;12.57;72.31;102942.94;5062251;28;19924;-59
2022/11/13 01:45:03;;;;;;;;;;;;;;;12.57;72.41;102940.31;5066630;28;20379;-58
2022/11/13 01:47:29;;;;;;;;;;;;;;;12.55;72.28;102932.44;5068755;28;19952;-60
2022/11/13 01:49:56;;;;;;;;;;;;;;;12.55;72.47;102931.56;5064844;28;19927;-58
2022/11/13 01:52:26;;;;;;;;;;;;;;;12.55;72.39;102928.91;5059461;28;19927;-57
2022/11/13 01:54:55;;;;;;;;;;;;;;;12.54;72.44;102927.19;5064839;28;19923;-58
2022/11/13 01:57:21;;;;;;;;;;;;;;;12.53;72.34;102922.81;5060735;28;19917;-59
2022/11/13 01:59:48;;;;;;;;;;;;;;;12.50;72.52;102919.34;5049434;28;19929;-58
2022/11/13 02:02:14;;;;;;;;;;;;;;;12.49;72.69;102924.69;5065192;28;19932;-61
2022/11/13 02:04:40;;;;;;;;;;;;;;;12.49;72.50;102919.41;5063395;28;19962;-58
2022/11/13 02:07:15;;;;;;;;;;;;;;;12.48;72.64;102913.25;5063757;28;19932;-58
2022/11/13 02:09:45;;;;;;;;;;;;;;;12.48;72.53;102923.81;5066399;28;20398;-61
2022/11/13 02:12:12;;;;;;;;;;;;;;;12.49;72.50;102914.97;5065372;28;20375;-57
2022/11/13 02:14:40;;;;;;;;;;;;;;;12.49;72.51;102914.13;5066521;28;20009;-62
2022/11/13 02:17:06;;;;;;;;;;;;;;;12.50;72.46;102911.44;5072555;28;19934;-58
2022/11/13 02:19:35;;;;;;;;;;;;;;;12.49;72.58;102909.69;5069820;28;20027;-58
2022/11/13 02:22:20;;;;;;;;;;;;;;;12.50;72.28;102906.16;5068553;28;19967;-60
2022/11/13 02:24:46;;;;;;;;;;;;;;;12.49;72.53;102914.97;5068055;28;19920;-61
2022/11/13 02:27:33;;;;;;;;;;;;;;;12.47;72.63;102911.56;5069380;28;20329;-60
2022/11/13 02:30:09;;;;;;;;;;;;;;;12.47;72.63;102906.28;5069230;28;19973;-59
2022/11/13 02:32:34;;;;;;;;;;;;;;;12.49;72.35;102908.84;5070867;28;19913;-58
2022/11/13 02:34:59;;;;;;;;;;;;;;;12.49;72.58;102907.06;5072641;28;19962;-58
2022/11/13 02:37:25;;;;;;;;;;;;;;;12.49;72.66;102903.56;5068968;28;19920;-59
2022/11/13 02:39:50;;;;;;;;;;;;;;;12.48;72.47;102897.41;5060628;28;19932;-58
2022/11/13 02:42:15;;;;;;;;;;;;;;;12.47;72.50;102901.00;5071736;28;19929;-58
2022/11/13 02:44:41;;;;;;;;;;;;;;;12.47;72.67;102898.34;5071257;28;19916;-58
2022/11/13 02:47:06;;;;;;;;;;;;;;;12.48;72.48;102907.97;5071569;28;19916;-58
2022/11/13 02:49:31;;;;;;;;;;;;;;;12.50;72.45;102897.38;5075148;28;19926;-58
2022/11/13 02:51:57;;;;;;;;;;;;;;;12.48;72.54;102894.78;5068059;28;20010;-58
2022/11/13 02:54:22;;;;;;;;;;;;;;;12.47;72.54;102895.72;5069399;28;20425;-58
2022/11/13 02:56:47;;;;;;;;;;;;;;;12.48;72.44;102888.63;5068070;28;19928;-59
2022/11/13 02:59:12;;;;;;;;;;;;;;;12.50;72.41;102890.31;5067896;28;19928;-60
2022/11/13 03:01:38;;;;;;;;;;;;;;;12.50;72.35;102885.03;5062022;28;19984;-60
2022/11/13 03:04:03;;;;;;;;;;;;;;;12.49;72.28;102882.44;5067643;28;20003;-58
2022/11/13 03:06:28;;;;;;;;;;;;;;;12.50;72.26;102885.03;5069089;28;19917;-61
2022/11/13 03:08:54;;;;;;;;;;;;;;;12.50;72.02;102885.03;5065380;28;19943;-58
2022/11/13 03:11:19;;;;;;;;;;;;;;;12.51;72.10;102885.91;5068286;28;19921;-57
2022/11/13 03:13:44;;;;;;;;;;;;;;;12.52;72.08;102884.13;5048970;28;20383;-58
2022/11/13 03:16:11;;;;;;;;;;;;;;;12.50;72.07;102885.03;5066291;28;20372;-59
2022/11/13 03:18:37;;;;;;;;;;;;;;;12.50;72.10;102882.38;5064770;28;20341;-58
2022/11/13 03:21:06;;;;;;;;;;;;;;;12.50;72.05;102881.53;5066473;28;19921;-58
2022/11/13 03:23:31;;;;;;;;;;;;;;;12.49;72.22;102879.81;5064419;28;20528;-58
2022/11/13 03:26:01;;;;;;;;;;;;;;;12.46;72.06;102867.56;5065668;28;19951;-59
2022/11/13 03:28:26;;;;;;;;;;;;;;;12.46;72.30;102870.22;5063503;28;19924;-58
2022/11/13 03:30:51;;;;;;;;;;;;;;;12.45;72.19;102865.84;5063087;28;19920;-59
2022/11/13 03:33:17;;;;;;;;;;;;;;;12.46;72.24;102861.41;5064922;28;20379;-62
2022/11/13 03:35:42;;;;;;;;;;;;;;;12.46;72.39;102864.94;5063455;28;19935;-58
2022/11/13 03:38:07;;;;;;;;;;;;;;;12.47;72.22;102863.16;5063562;28;19921;-57
2022/11/13 03:40:33;;;;;;;;;;;;;;;12.47;72.28;102863.16;5063522;28;19932;-58
2022/11/13 03:42:58;;;;;;;;;;;;;;;12.45;72.15;102860.56;5064643;28;19963;-59
2022/11/13 03:45:23;;;;;;;;;;;;;;;12.45;72.25;102857.94;5069344;28;19925;-60
2022/11/13 03:47:49;;;;;;;;;;;;;;;12.46;72.07;102861.41;5069405;28;20395;-61
2022/11/13 03:50:15;;;;;;;;;;;;;;;12.44;72.24;102861.47;5062913;28;19920;-58
2022/11/13 03:52:40;;;;;;;;;;;;;;;12.45;72.34;102860.56;5068959;28;20367;-60
2022/11/13 03:55:05;;;;;;;;;;;;;;;12.44;72.29;102861.47;5063907;28;19916;-58
2022/11/13 03:57:31;;;;;;;;;;;;;;;12.43;72.35;102867.66;5061438;28;20054;-58
2022/11/13 03:59:56;;;;;;;;;;;;;;;12.45;72.08;102878.16;5060351;28;19944;-61
2022/11/13 04:02:21;;;;;;;;;;;;;;;12.46;72.20;102872.84;5060954;28;20045;-60
2022/11/13 04:04:47;;;;;;;;;;;;;;;12.50;72.04;102882.38;5066762;28;19936;-59
2022/11/13 04:07:12;;;;;;;;;;;;;;;12.49;71.97;102872.72;5063999;28;19924;-58
2022/11/13 04:09:37;;;;;;;;;;;;;;;12.49;71.99;102882.44;5066039;28;19920;-55
2022/11/13 04:12:02;;;;;;;;;;;;;;;12.52;71.95;102886.75;5065280;28;20442;-59
2022/11/13 04:14:28;;;;;;;;;;;;;;;12.54;72.02;102884.94;5067066;28;19917;-58
2022/11/13 04:16:53;;;;;;;;;;;;;;;12.51;71.97;102875.34;5067356;28;19920;-55
2022/11/13 04:19:18;;;;;;;;;;;;;;;12.51;71.90;102880.63;5064414;28;19920;-56
2022/11/13 04:21:44;;;;;;;;;;;;;;;12.52;71.84;102881.47;5050100;28;19999;-56
2022/11/13 04:24:09;;;;;;;;;;;;;;;12.49;71.85;102882.44;5066631;28;20473;-58
2022/11/13 04:26:34;;;;;;;;;;;;;;;12.48;71.94;102881.56;5061951;28;20348;-63
2022/11/13 04:29:00;;;;;;;;;;;;;;;12.48;72.17;102884.22;5069028;28;19970;-56
2022/11/13 04:31:25;;;;;;;;;;;;;;;12.48;72.06;102880.72;5068122;28;19960;-57
2022/11/13 04:33:50;;;;;;;;;;;;;;;12.43;72.21;102880.00;5065839;28;19921;-57
2022/11/13 04:36:15;;;;;;;;;;;;;;;12.43;72.23;102880.88;5065533;28;20419;-58
2022/11/13 04:38:41;;;;;;;;;;;;;;;12.42;72.24;102887.06;5060490;28;19925;-57
2022/11/13 04:43:50;;;;;;;;;;;;;;;12.43;72.35;102878.22;5064500;28;20391;-57
2022/11/13 04:46:16;;;;;;;;;;;;;;;12.44;72.29;102876.44;5066636;28;19921;-58
2022/11/13 04:48:41;;;;;;;;;;;;;;;12.43;72.57;102872.94;5063047;28;19916;-60
2022/11/13 04:51:06;;;;;;;;;;;;;;;12.42;72.52;102868.56;5058126;28;20063;-57
2022/11/13 04:53:32;;;;;;;;;;;;;;;12.42;72.46;102870.34;5059807;28;19921;-58
2022/11/13 04:55:57;;;;;;;;;;;;;;;12.42;72.55;102868.56;5060634;28;20722;-58
2022/11/13 04:58:22;;;;;;;;;;;;;;;12.42;72.77;102859.78;5066301;28;19916;-60
2022/11/13 05:00:47;;;;;;;;;;;;;;;12.41;72.82;102853.66;5063503;28;19968;-57
2022/11/13 05:03:13;;;;;;;;;;;;;;;12.41;72.91;102853.66;5060665;28;20357;-57
2022/11/13 05:05:38;;;;;;;;;;;;;;;12.40;72.78;102859.84;5064019;28;19929;-57
2022/11/13 05:08:03;;;;;;;;;;;;;;;12.41;72.95;102856.28;5063851;28;19921;-57
2022/11/13 05:10:29;;;;;;;;;;;;;;;12.42;73.25;102851.84;5061978;28;19928;-57
2022/11/13 05:12:57;;;;;;;;;;;;;;;12.42;73.22;102849.22;5063115;28;19921;-57
2022/11/13 05:15:22;;;;;;;;;;;;;;;12.41;73.14;102851.00;5067884;28;19929;-59
2022/11/13 05:17:48;;;;;;;;;;;;;;;12.40;73.29;102851.91;5065331;28;20296;-58
2022/11/13 05:20:13;;;;;;;;;;;;;;;12.40;73.26;102857.19;5063416;28;19931;-58
2022/11/13 05:22:38;;;;;;;;;;;;;;;12.41;73.53;102851.00;5071709;28;20306;-58
2022/11/13 05:25:04;;;;;;;;;;;;;;;12.42;73.35;102844.81;5062607;28;19931;-57
2022/11/13 05:27:29;;;;;;;;;;;;;;;12.41;73.44;102848.38;5064763;28;19920;-61
2022/11/13 05:29:54;;;;;;;;;;;;;;;12.41;73.71;102842.19;5067153;28;19935;-57
2022/11/13 05:32:20;;;;;;;;;;;;;;;12.41;73.49;102842.19;5063125;28;21376;-58
2022/11/13 05:34:45;;;;;;;;;;;;;;;12.41;73.88;102840.44;5064196;28;19920;-58
2022/11/13 05:37:10;;;;;;;;;;;;;;;12.40;73.96;102840.50;5066814;28;19928;-61
2022/11/13 05:39:36;;;;;;;;;;;;;;;12.39;73.76;102839.63;5064780;28;19916;-57
2022/11/13 05:42:01;;;;;;;;;;;;;;;12.37;74.02;102841.44;5064924;28;19920;-60
2022/11/13 05:44:26;;;;;;;;;;;;;;;12.36;73.95;102839.72;5069625;28;19928;-59
2022/11/13 05:46:51;;;;;;;;;;;;;;;12.35;74.25;102838.88;5068325;28;19944;-60
2022/11/13 05:49:17;;;;;;;;;;;;;;;12.33;74.30;102840.69;5067246;28;20047;-57
2022/11/13 05:51:42;;;;;;;;;;;;;;;12.34;74.18;102844.19;5068562;28;19916;-59
2022/11/13 05:54:07;;;;;;;;;;;;;;;12.32;74.23;102838.97;5065826;28;19923;-58
2022/11/13 05:56:34;;;;;;;;;;;;;;;12.32;74.35;102848.66;5057535;28;21536;-60
2022/11/13 05:59:00;;;;;;;;;;;;;;;12.33;74.46;102839.81;5067641;28;19996;-60
2022/11/13 06:01:33;;;;;;;;;;;;;;;12.33;74.27;102840.69;5066845;28;20019;-61
2022/11/13 06:03:59;;;;;;;;;;;;;;;12.32;74.72;102840.75;5067523;28;19955;-58
2022/11/13 06:06:25;;;;;;;;;;;;;;;12.32;74.83;102835.47;5066100;28;19963;-57
2022/11/13 06:08:51;;;;;;;;;;;;;;;12.31;74.91;102837.22;5065430;28;19971;-60
2022/11/13 06:11:18;;;;;;;;;;;;;;;12.31;75.14;102831.94;5070464;28;19919;-58
2022/11/13 06:13:43;;;;;;;;;;;;;;;12.30;75.26;102837.28;5070662;28;19913;-57
2022/11/13 06:16:13;;;;;;;;;;;;;;;12.27;75.45;102835.59;5067018;28;19927;-58
2022/11/13 06:18:39;;;;;;;;;;;;;;;12.27;75.48;102832.09;5066069;28;20353;-58
2022/11/13 06:21:09;;;;;;;;;;;;;;;12.26;75.51;102838.28;5068621;28;19962;-61
2022/11/13 06:23:35;;;;;;;;;;;;;;;12.25;75.64;102831.28;5063467;28;27074;-58
2022/11/13 06:26:08;;;;;;;;;;;;;;;12.23;75.67;102833.97;5061703;28;20414;-60
2022/11/13 06:28:34;;;;;;;;;;;;;;;12.23;75.62;102828.69;5063463;28;19974;-57
2022/11/13 06:31:04;;;;;;;;;;;;;;;12.23;75.92;102823.44;5067194;28;19924;-57
2022/11/13 06:33:30;;;;;;;;;;;;;;;12.22;75.82;102826.97;5064587;28;20531;-59
2022/11/13 06:35:55;;;;;;;;;;;;;;;12.24;75.95;102834.84;5070817;28;19924;-58
2022/11/13 06:38:20;;;;;;;;;;;;;;;12.24;75.97;102829.56;5067802;28;19924;-59
2022/11/13 06:40:45;;;;;;;;;;;;;;;12.22;75.91;102826.97;5067343;28;19956;-58
2022/11/13 06:43:11;;;;;;;;;;;;;;;12.24;76.46;102826.91;5066993;28;19912;-57
2022/11/13 06:45:36;;;;;;;;;;;;;;;12.24;76.15;102835.72;5064418;28;20015;-61
2022/11/13 06:48:02;;;;;;;;;;;;;;;12.23;76.27;102838.38;5059231;28;20046;-60
2022/11/13 06:50:27;;;;;;;;;;;;;;;12.23;76.30;102823.44;5059883;28;20256;-58
2022/11/13 06:52:53;;;;;;;;;;;;;;;12.23;76.36;102820.78;5062007;28;20402;-58
2022/11/13 06:55:18;;;;;;;;;;;;;;;12.26;76.39;102817.16;5062038;28;19967;-59
2022/11/13 06:57:43;;;;;;;;;;;;;;;12.27;76.62;102818.91;5064623;28;20416;-60
2022/11/13 07:00:09;;;;;;;;;;;;;;;12.26;76.48;102811.91;5066209;28;19925;-58
2022/11/13 07:02:34;;;;;;;;;;;;;;;12.26;76.66;102809.25;5061612;28;19928;-58
2022/11/13 07:04:59;;;;;;;;;;;;;;;12.28;76.56;102810.06;5059682;28;20007;-61
2022/11/13 07:07:25;;;;;;;;;;;;;;;12.30;76.56;102808.25;5064747;28;19924;-59
2022/11/13 07:09:50;;;;;;;;;;;;;;;12.29;76.53;102811.81;5065300;28;19927;-58
2022/11/13 07:12:15;;;;;;;;;;;;;;;12.31;76.54;102809.97;5053070;28;20023;-58
2022/11/13 07:14:41;;;;;;;;;;;;;;;12.29;77.10;102807.38;5064650;28;19920;-59
2022/11/13 07:17:06;;;;;;;;;;;;;;;12.31;76.94;102799.44;5068800;28;19924;-58
2022/11/13 07:19:31;;;;;;;;;;;;;;;12.33;76.77;102803.72;5064858;28;19920;-59
2022/11/13 07:21:57;;;;;;;;;;;;;;;12.37;77.07;102803.63;5059556;28;20917;-60
2022/11/13 07:24:22;;;;;;;;;;;;;;;12.40;76.78;102806.19;5066276;28;20346;-59
2022/11/13 07:26:47;;;;;;;;;;;;;;;12.46;76.57;102803.31;5068110;28;19950;-58
2022/11/13 07:29:14;;;;;;;;;;;;;;;12.48;76.56;102807.63;5065948;28;19928;-58
2022/11/13 07:31:39;;;;;;;;;;;;;;;12.51;76.68;102804.06;5052329;28;19917;-57
2022/11/13 07:34:05;;;;;;;;;;;;;;;12.51;76.71;102801.41;5063715;28;20451;-58
2022/11/13 07:36:30;;;;;;;;;;;;;;;12.55;76.77;102802.16;5057734;28;20427;-57
2022/11/13 07:38:55;;;;;;;;;;;;;;;12.56;76.84;102801.25;5069908;28;19925;-61
2022/11/13 07:41:21;;;;;;;;;;;;;;;12.59;76.72;102809.06;5065711;28;19921;-58
2022/11/13 07:43:46;;;;;;;;;;;;;;;12.59;76.65;102807.28;5069749;28;19928;-57
2022/11/13 07:46:11;;;;;;;;;;;;;;;12.61;76.61;102807.25;5063628;28;19920;-59
2022/11/13 07:48:37;;;;;;;;;;;;;;;12.61;76.70;102804.59;5050017;28;19963;-57
2022/11/13 07:51:02;;;;;;;;;;;;;;;12.60;76.89;102805.53;5068878;28;19916;-60
2022/11/13 07:53:27;;;;;;;;;;;;;;;12.62;76.58;102803.69;5073343;28;19966;-61
2022/11/13 07:55:53;;;;;;;;;;;;;;;12.63;76.48;102808.03;5068678;28;19917;-60
2022/11/13 07:58:18;;;;;;;;;;;;;;;12.62;76.61;102808.97;5066307;28;19932;-59
2022/11/13 08:00:43;;;;;;;;;;;;;;;12.60;76.39;102810.81;5065919;28;19925;-60
2022/11/13 08:03:18;;;;;;;;;;;;;;;12.59;76.69;102803.78;5060988;28;19928;-59
2022/11/13 08:05:43;;;;;;;;;;;;;;;12.53;76.88;102814.53;5062897;28;20012;-61
2022/11/13 08:08:13;;;;;;;;;;;;;;;12.54;76.90;102811.00;5066659;28;20050;-58
2022/11/13 08:10:38;;;;;;;;;;;;;;;12.56;76.65;102817.94;5049525;28;19955;-59
2022/11/13 08:13:05;;;;;;;;;;;;;;;12.56;76.93;102814.47;5070712;28;19958;-58
2022/11/13 08:15:31;;;;;;;;;;;;;;;12.56;76.66;102814.47;5050936;28;19913;-58
2022/11/13 08:17:57;;;;;;;;;;;;;;;12.59;76.83;102822.28;5067161;28;19919;-58
2022/11/13 08:20:23;;;;;;;;;;;;;;;12.62;76.77;102819.53;5060683;28;20060;-58
2022/11/13 08:22:48;;;;;;;;;;;;;;;12.63;76.74;102816.84;5059231;28;19967;-58
2022/11/13 08:25:14;;;;;;;;;;;;;;;12.66;76.64;102813.22;5068195;28;20043;-61
2022/11/13 08:27:39;;;;;;;;;;;;;;;12.68;76.56;102808.75;5046383;28;19916;-57
2022/11/13 08:30:05;;;;;;;;;;;;;;;12.67;76.55;102806.19;5068844;28;20015;-58
2022/11/13 08:32:30;;;;;;;;;;;;;;;12.69;76.32;102818.41;5049451;28;20291;-57
2022/11/13 08:34:56;;;;;;;;;;;;;;;12.72;76.17;102818.31;5066345;28;20344;-61
2022/11/13 08:37:21;;;;;;;;;;;;;;;12.74;76.13;102810.31;5065381;28;19928;-57
2022/11/13 08:39:46;;;;;;;;;;;;;;;12.74;76.16;102812.97;5047801;28;19931;-60
2022/11/13 08:42:12;;;;;;;;;;;;;;;12.74;75.91;102810.31;5065170;28;19917;-57
2022/11/13 08:44:37;;;;;;;;;;;;;;;12.75;75.80;102799.72;5046078;28;19924;-57
2022/11/13 08:47:03;;;;;;;;;;;;;;;12.76;75.02;102806.72;5067312;28;19928;-59
2022/11/13 08:49:28;;;;;;;;;;;;;;;12.77;74.80;102813.75;5058473;28;19928;-57
2022/11/13 08:51:53;;;;;;;;;;;;;;;12.75;74.26;102802.38;5058338;28;20015;-59
2022/11/13 08:54:19;;;;;;;;;;;;;;;12.77;74.44;102802.31;5065815;28;19927;-57
2022/11/13 08:56:46;;;;;;;;;;;;;;;12.81;74.42;102810.06;5064096;28;19931;-57
2022/11/13 08:59:12;;;;;;;;;;;;;;;12.81;73.84;102807.41;5063332;28;19920;-58
2022/11/13 09:01:37;;;;;;;;;;;;;;;12.77;73.47;102808.47;5051213;28;19936;-57
2022/11/13 09:04:02;;;;;;;;;;;;;;;12.76;73.69;102801.44;5057305;28;20562;-57
2022/11/13 09:06:28;;;;;;;;;;;;;;;12.78;73.61;102810.16;5061326;28;20392;-57
2022/11/13 09:08:53;;;;;;;;;;;;;;;12.78;73.77;102810.16;5065506;28;19924;-57
2022/11/13 09:11:19;;;;;;;;;;;;;;;12.81;73.47;102806.56;5071123;28;19921;-57
2022/11/13 09:13:44;;;;;;;;;;;;;;;12.84;73.28;102808.22;5059593;28;20011;-57
2022/11/13 09:16:09;;;;;;;;;;;;;;;12.87;73.18;102808.13;5059344;28;19925;-57
2022/11/13 09:18:35;;;;;;;;;;;;;;;12.87;73.07;102802.84;5068073;28;19967;-58
2022/11/13 09:21:01;;;;;;;;;;;;;;;12.91;73.20;102809.75;5070101;28;20311;-59
2022/11/13 09:23:27;;;;;;;;;;;;;;;12.91;73.16;102807.97;5066452;28;19920;-59
2022/11/13 09:25:53;;;;;;;;;;;;;;;12.87;73.06;102798.41;5070986;28;20001;-57
2022/11/13 09:28:19;;;;;;;;;;;;;;;12.92;73.09;102803.56;5067442;28;19978;-59
2022/11/13 09:30:44;;;;;;;;;;;;;;;12.90;72.69;102805.41;5047315;28;19952;-58
2022/11/13 09:33:14;;;;;;;;;;;;;;;12.88;72.86;102799.28;5069493;28;19925;-57
2022/11/13 09:35:39;;;;;;;;;;;;;;;12.90;72.84;102802.75;5061342;28;19916;-59
2022/11/13 09:38:06;;;;;;;;;;;;;;;12.91;72.79;102794.75;5072381;28;19930;-59
2022/11/13 09:40:37;;;;;;;;;;;;;;;12.95;72.58;102795.50;5066002;28;20386;-57
2022/11/13 09:43:05;;;;;;;;;;;;;;;12.95;72.66;102811.38;5066445;28;20344;-61
2022/11/13 09:45:30;;;;;;;;;;;;;;;12.97;72.62;102804.25;5062969;28;19955;-59
2022/11/13 09:48:00;;;;;;;;;;;;;;;13.00;72.33;102792.72;5059095;28;20409;-62
2022/11/13 09:50:26;;;;;;;;;;;;;;;13.01;71.95;102795.31;5069148;28;19920;-58
2022/11/13 09:52:53;;;;;;;;;;;;;;;13.02;72.04;102796.16;5062831;28;20454;-61
2022/11/13 09:55:21;;;;;;;;;;;;;;;13.01;72.04;102792.66;5066323;28;19916;-60
2022/11/13 09:57:51;;;;;;;;;;;;;;;13.05;72.08;102793.41;5059443;28;19916;-58
2022/11/13 10:00:20;;;;;;;;;;;;;;;13.09;71.73;102793.25;5057572;28;20403;-58
2022/11/13 10:03:05;;;;;;;;;;;;;;;13.10;71.80;102794.97;5063375;28;19923;-60
2022/11/13 10:05:51;;;;;;;;;;;;;;;13.09;71.62;102784.47;5067779;28;19916;-58
2022/11/13 10:08:37;;;;;;;;;;;;;;;13.16;71.28;102798.31;5050313;28;20019;-59
2022/11/13 10:11:03;;;;;;;;;;;;;;;13.15;71.35;102788.66;5050488;28;21049;-58
2022/11/13 10:13:42;;;;;;;;;;;;;;;13.17;71.15;102781.53;5056679;28;19920;-60
2022/11/13 10:16:16;;;;;;;;;;;;;;;13.18;71.10;102783.28;5059470;28;19966;-60
2022/11/13 10:18:42;;;;;;;;;;;;;;;13.15;71.02;102780.72;5053853;28;19920;-57
2022/11/13 10:21:14;;;;;;;;;;;;;;;13.15;71.21;102776.31;5062323;28;20012;-57
2022/11/13 10:23:40;;;;;;;;;;;;;;;13.14;71.11;102779.00;5055208;28;19948;-61
2022/11/13 10:26:11;;;;;;;;;;;;;;;13.07;71.40;102768.69;5046095;28;19929;-58
2022/11/13 10:28:39;;;;;;;;;;;;;;;13.05;71.29;102765.22;5063570;28;19923;-57
2022/11/13 10:31:04;;;;;;;;;;;;;;;13.03;71.40;102767.06;5060332;28;19924;-57
2022/11/13 10:33:30;;;;;;;;;;;;;;;13.03;71.69;102760.88;5056097;28;19921;-60
2022/11/13 10:36:01;;;;;;;;;;;;;;;13.04;71.41;102758.19;5063858;28;19935;-60
2022/11/13 10:38:31;;;;;;;;;;;;;;;13.07;71.41;102751.94;5059288;28;20049;-59
2022/11/13 10:41:03;;;;;;;;;;;;;;;13.07;71.48;102751.94;5060823;28;19924;-60
2022/11/13 10:43:28;;;;;;;;;;;;;;;13.07;71.22;102750.19;5055405;28;19928;-59
2022/11/13 10:45:56;;;;;;;;;;;;;;;13.05;71.16;102751.13;5063032;28;19937;-60
2022/11/13 10:48:22;;;;;;;;;;;;;;;13.06;71.27;102745.81;5053164;28;19928;-58
2022/11/13 10:50:55;;;;;;;;;;;;;;;13.07;71.10;102747.53;5065812;28;20342;-60
2022/11/13 10:53:21;;;;;;;;;;;;;;;13.06;70.92;102739.63;5065929;28;19924;-58
2022/11/13 10:55:49;;;;;;;;;;;;;;;13.07;71.12;102746.66;5049559;28;19916;-58
2022/11/13 10:58:16;;;;;;;;;;;;;;;13.06;71.06;102732.59;5067447;28;19917;-58
2022/11/13 11:00:46;;;;;;;;;;;;;;;13.05;70.92;102741.44;5059035;28;19991;-60
2022/11/13 11:03:14;;;;;;;;;;;;;;;13.04;70.82;102734.41;5065543;28;19928;-58
2022/11/13 11:05:49;;;;;;;;;;;;;;;13.07;70.43;102741.38;5065159;28;19928;-56
2022/11/13 11:08:15;;;;;;;;;;;;;;;13.07;70.43;102736.06;5060447;28;19989;-58
2022/11/13 11:12:14;;;;;;;;;;;;;;;13.02;70.62;102728.31;5062226;28;19924;-57
2022/11/13 11:13:26;;;;;;;;;;;;;;;12.99;70.83;102733.72;5063381;28;19933;-59
2022/11/13 11:15:57;;;;;;;;;;;;;;;12.99;70.88;102722.28;5062208;28;20011;-55
2022/11/13 11:18:35;;;;;;;;;;;;;;;12.96;70.94;102728.53;5061877;28;20324;-55
2022/11/13 11:21:05;;;;;;;;;;;;;;;12.95;71.13;102726.81;5068822;28;19975;-54
2022/11/13 11:23:33;;;;;;;;;;;;;;;12.94;71.12;102719.78;5066106;28;20039;-60
2022/11/13 11:25:58;;;;;;;;;;;;;;;12.92;71.20;102719.00;5045520;28;20556;-58
2022/11/13 11:28:43;;;;;;;;;;;;;;;12.94;71.14;102711.88;5057276;28;19921;-59
2022/11/13 11:31:20;;;;;;;;;;;;;;;12.93;70.94;102707.53;5056714;28;19921;-59
2022/11/13 11:33:45;;;;;;;;;;;;;;;12.90;71.04;102699.72;5055668;28;20342;-59
2022/11/13 11:36:24;;;;;;;;;;;;;;;12.86;70.90;102706.00;5064300;28;20372;-61
2022/11/13 11:38:53;;;;;;;;;;;;;;;12.85;71.02;102704.28;5055641;28;19924;-62
2022/11/13 11:41:20;;;;;;;;;;;;;;;12.86;71.06;102704.22;5049923;28;20015;-60
2022/11/13 11:44:00;;;;;;;;;;;;;;;12.86;71.17;102706.00;5060975;28;19994;-59
2022/11/13 11:46:27;;;;;;;;;;;;;;;12.87;71.24;102707.75;5059410;28;20296;-58
2022/11/13 11:48:58;;;;;;;;;;;;;;;12.86;71.02;102706.00;5060673;28;19917;-59
2022/11/13 11:51:31;;;;;;;;;;;;;;;12.85;71.27;102704.28;5059478;28;19920;-60
2022/11/13 11:54:01;;;;;;;;;;;;;;;12.86;71.19;102695.44;5049937;28;19924;-58
2022/11/13 11:56:32;;;;;;;;;;;;;;;12.85;71.16;102696.38;5055351;28;19926;-61
2022/11/13 11:59:19;;;;;;;;;;;;;;;12.84;71.16;102697.28;5054152;28;19931;-60
2022/11/13 12:02:03;;;;;;;;;;;;;;;12.78;71.34;102695.72;5050156;28;19936;-59
2022/11/13 12:04:31;;;;;;;;;;;;;;;12.73;71.59;102690.59;5057078;28;19924;-60
2022/11/13 12:07:04;;;;;;;;;;;;;;;12.72;71.68;102688.88;5061835;28;20315;-62
2022/11/13 12:09:32;;;;;;;;;;;;;;;12.71;71.70;102681.88;5053422;28;20490;-58
2022/11/13 12:12:15;;;;;;;;;;;;;;;12.72;71.35;102680.97;5063323;28;19931;-58
2022/11/13 12:14:49;;;;;;;;;;;;;;;12.70;71.36;102677.50;5052397;28;19924;-61
2022/11/13 12:17:35;;;;;;;;;;;;;;;12.70;71.44;102680.16;5029651;28;19965;-62
2022/11/13 12:20:00;;;;;;;;;;;;;;;12.68;71.48;102671.41;5063547;28;19927;-58
2022/11/13 12:22:42;;;;;;;;;;;;;;;12.67;71.59;102677.59;5057477;28;19916;-59
2022/11/13 12:25:20;;;;;;;;;;;;;;;12.69;71.70;102677.56;5054108;28;19927;-60
2022/11/13 12:27:52;;;;;;;;;;;;;;;12.65;71.71;102671.50;5059827;28;19920;-58
2022/11/13 12:30:17;;;;;;;;;;;;;;;12.59;71.82;102669.09;5064378;28;19924;-61
2022/11/13 12:32:48;;;;;;;;;;;;;;;12.59;71.82;102669.09;5061014;28;19982;-59
2022/11/13 12:35:18;;;;;;;;;;;;;;;12.57;71.83;102665.66;5058230;28;19960;-60
2022/11/13 12:37:52;;;;;;;;;;;;;;;12.59;71.87;102667.31;5059656;28;19983;-58